createdAt,value
2023-11-02T00:00:10.480Z,93538.40
2023-11-02T00:02:58.340Z,93539.00
2023-11-02T00:05:26.312Z,93533.20
2023-11-02T00:07:54.501Z,93531.80
2023-11-02T00:10:23.164Z,93531.20
2023-11-02T00:12:50.861Z,93528.60
2023-11-02T00:15:18.700Z,93525.20
2023-11-02T00:17:46.421Z,93519.20
2023-11-02T00:20:14.018Z,93523.20
2023-11-02T00:22:42.871Z,93520.00
2023-11-02T00:25:10.959Z,93521.80
2023-11-02T00:27:38.611Z,93522.20
2023-11-02T00:30:06.715Z,93520.00
2023-11-02T00:32:34.752Z,93518.20
2023-11-02T00:35:02.408Z,93511.40
2023-11-02T00:37:30.492Z,93507.20
2023-11-02T00:39:59.365Z,93504.40
2023-11-02T00:42:27.042Z,93508.60
2023-11-02T00:44:54.792Z,93501.20
2023-11-02T00:47:22.426Z,93501.80
2023-11-02T00:49:50.393Z,93491.00
2023-11-02T00:52:18.328Z,93485.20
2023-11-02T00:54:46.405Z,93485.80
2023-11-02T00:57:14.039Z,93480.40
2023-11-02T00:59:41.782Z,93481.40
2023-11-02T01:02:09.427Z,93472.00
2023-11-02T01:04:37.260Z,93463.60
2023-11-02T01:07:05.124Z,93460.20
2023-11-02T01:09:32.805Z,93460.40
2023-11-02T01:12:01.353Z,93452.60
2023-11-02T01:14:29.656Z,93449.20
2023-11-02T01:16:58.085Z,93452.00
2023-11-02T01:19:26.284Z,93442.60
2023-11-02T01:21:53.861Z,93441.40
2023-11-02T01:24:21.992Z,93444.80
2023-11-02T01:26:49.805Z,93445.40
2023-11-02T01:29:17.682Z,93441.80
2023-11-02T01:31:45.348Z,93437.80
2023-11-02T01:34:13.114Z,93434.80
2023-11-02T01:36:41.087Z,93437.00
2023-11-02T01:39:10.940Z,93429.60
2023-11-02T01:41:38.635Z,93437.80
2023-11-02T01:44:06.341Z,93435.80
2023-11-02T01:46:34.657Z,93434.80
2023-11-02T01:49:02.327Z,93434.40
2023-11-02T01:51:30.166Z,93433.80
2023-11-02T01:53:58.248Z,93429.60
2023-11-02T01:56:26.021Z,93425.20
2023-11-02T01:58:53.758Z,93427.20
2023-11-02T02:01:21.442Z,93424.20
2023-11-02T02:03:49.387Z,93432.20
2023-11-02T02:06:17.295Z,93430.80
2023-11-02T02:08:45.221Z,93435.60
2023-11-02T02:11:12.844Z,93426.40
2023-11-02T02:13:40.503Z,93421.60
2023-11-02T02:16:11.031Z,93419.80
2023-11-02T02:18:38.780Z,93409.60
2023-11-02T02:21:06.583Z,93409.60
2023-11-02T02:23:34.519Z,93400.40
2023-11-02T02:26:02.147Z,93407.00
2023-11-02T02:28:29.900Z,93405.00
2023-11-02T02:30:57.735Z,93408.40
2023-11-02T02:33:28.461Z,93412.80
2023-11-02T02:35:57.752Z,93404.20
2023-11-02T02:38:29.617Z,93404.40
2023-11-02T02:40:57.518Z,93396.80
2023-11-02T02:43:25.203Z,93383.80
2023-11-02T02:45:52.949Z,93371.80
2023-11-02T02:48:20.647Z,93367.20
2023-11-02T02:50:49.240Z,93365.60
2023-11-02T02:53:17.308Z,93369.80
2023-11-02T02:55:45.429Z,93365.60
2023-11-02T02:58:14.524Z,93367.20
2023-11-02T03:00:42.387Z,93366.60
2023-11-02T03:03:11.257Z,93368.00
2023-11-02T03:05:39.079Z,93368.40
2023-11-02T03:08:06.953Z,93356.20
2023-11-02T03:10:34.670Z,93354.80
2023-11-02T03:13:05.282Z,93353.20
2023-11-02T03:15:33.525Z,93343.80
2023-11-02T03:18:01.387Z,93335.20
2023-11-02T03:20:29.067Z,93323.60
2023-11-02T03:22:56.820Z,93321.20
2023-11-02T03:25:24.587Z,93310.60
2023-11-02T03:27:52.359Z,93314.00
2023-11-02T03:30:20.326Z,93305.40
2023-11-02T03:32:48.036Z,93295.00
2023-11-02T03:35:16.427Z,93292.60
2023-11-02T03:37:44.509Z,93284.20
2023-11-02T03:40:12.144Z,93283.80
2023-11-02T03:42:39.855Z,93280.60
2023-11-02T03:45:07.780Z,93279.60
2023-11-02T03:47:35.583Z,93277.20
2023-11-02T03:50:03.995Z,93283.20
2023-11-02T03:52:31.672Z,93286.20
2023-11-02T03:54:59.479Z,93286.60
2023-11-02T03:57:27.482Z,93287.20
2023-11-02T03:59:57.604Z,93281.40
2023-11-02T04:02:25.223Z,93283.00
2023-11-02T04:04:52.826Z,93281.40
2023-11-02T04:07:20.624Z,93288.60
2023-11-02T04:09:48.381Z,93285.40
2023-11-02T04:12:18.540Z,93286.40
2023-11-02T04:14:46.560Z,93289.00
2023-11-02T04:17:14.250Z,93278.60
2023-11-02T04:19:41.964Z,93283.20
2023-11-02T04:22:09.809Z,93275.20
2023-11-02T04:24:37.688Z,93265.80
2023-11-02T04:27:05.696Z,93263.80
2023-11-02T04:29:33.629Z,93263.80
2023-11-02T04:32:01.331Z,93256.40
2023-11-02T04:34:29.090Z,93255.20
2023-11-02T04:36:57.596Z,93253.80
2023-11-02T04:39:25.414Z,93258.20
2023-11-02T04:41:53.144Z,93256.40
2023-11-02T04:44:20.870Z,93250.40
2023-11-02T04:46:48.507Z,93248.40
2023-11-02T04:49:16.504Z,93244.40
2023-11-02T04:51:44.395Z,93242.00
2023-11-02T04:54:12.161Z,93236.00
2023-11-02T04:56:39.740Z,93234.40
2023-11-02T04:59:07.472Z,93239.40
2023-11-02T05:01:35.264Z,93228.60
2023-11-02T05:04:03.235Z,93225.80
2023-11-02T05:06:31.463Z,93213.00
2023-11-02T05:09:03.428Z,93214.80
2023-11-02T05:11:31.197Z,93205.60
2023-11-02T05:13:58.928Z,93207.00
2023-11-02T05:16:26.614Z,93210.20
2023-11-02T05:18:54.538Z,93202.20
2023-11-02T05:21:23.049Z,93208.60
2023-11-02T05:23:50.761Z,93211.40
2023-11-02T05:26:18.935Z,93204.00
2023-11-02T05:28:49.383Z,93211.20
2023-11-02T05:31:17.169Z,93202.80
2023-11-02T05:33:45.002Z,93194.00
2023-11-02T05:36:13.042Z,93193.20
2023-11-02T05:38:40.830Z,93191.60
2023-11-02T05:41:08.687Z,93191.00
2023-11-02T05:43:36.592Z,93187.20
2023-11-02T05:46:04.656Z,93178.80
2023-11-02T05:48:32.375Z,93169.40
2023-11-02T05:51:00.311Z,93177.60
2023-11-02T05:53:27.968Z,93173.40
2023-11-02T05:55:55.584Z,93173.60
2023-11-02T05:58:23.611Z,93162.20
2023-11-02T06:00:51.209Z,93156.40
2023-11-02T06:03:19.165Z,93163.40
2023-11-02T06:05:47.632Z,93153.80
2023-11-02T06:08:15.258Z,93166.60
2023-11-02T06:10:43.003Z,93161.60
2023-11-02T06:13:10.795Z,93153.60
2023-11-02T06:15:38.666Z,93151.60
2023-11-02T06:18:08.496Z,93153.80
2023-11-02T06:20:36.624Z,93142.00
2023-11-02T06:23:05.214Z,93145.80
2023-11-02T06:25:32.996Z,93142.60
2023-11-02T06:28:01.026Z,93149.20
2023-11-02T06:30:29.236Z,93145.00
2023-11-02T06:32:57.050Z,93144.00
2023-11-02T06:35:26.156Z,93143.00
2023-11-02T06:37:53.913Z,93141.60
2023-11-02T06:40:21.557Z,93142.40
2023-11-02T06:42:51.141Z,93145.00
2023-11-02T06:45:19.012Z,93134.20
2023-11-02T06:47:46.734Z,93130.60
2023-11-02T06:50:14.730Z,93134.00
2023-11-02T06:52:42.549Z,93124.20
2023-11-02T06:55:10.198Z,93130.80
2023-11-02T06:57:37.978Z,93120.60
2023-11-02T07:00:10.922Z,93116.20
2023-11-02T07:02:38.889Z,93132.60
2023-11-02T07:05:07.237Z,93117.40
2023-11-02T07:07:40.104Z,93110.80
2023-11-02T07:10:08.289Z,93096.40
2023-11-02T07:12:36.704Z,93098.00
2023-11-02T07:15:04.314Z,93100.60
2023-11-02T07:17:32.162Z,93095.20
2023-11-02T07:19:59.808Z,93101.20
2023-11-02T07:22:27.549Z,93107.60
2023-11-02T07:24:55.501Z,93093.00
2023-11-02T07:27:24.940Z,93106.40
2023-11-02T07:29:52.846Z,93103.00
2023-11-02T07:32:21.570Z,93096.20
2023-11-02T07:34:49.203Z,93102.60
2023-11-02T07:37:16.879Z,93089.60
2023-11-02T07:39:44.561Z,93094.00
2023-11-02T07:42:12.365Z,93105.40
2023-11-02T07:44:40.140Z,93092.20
2023-11-02T07:47:08.273Z,93091.60
2023-11-02T07:49:36.437Z,93088.00
2023-11-02T07:52:04.295Z,93088.60
2023-11-02T07:54:32.127Z,93089.00
2023-11-02T07:56:59.948Z,93081.80
2023-11-02T07:59:27.748Z,93079.20
2023-11-02T08:01:56.219Z,93068.20
2023-11-02T08:04:25.087Z,93071.60
2023-11-02T08:06:54.157Z,93079.00
2023-11-02T08:09:21.883Z,93078.20
2023-11-02T08:11:49.651Z,93072.40
2023-11-02T08:14:18.470Z,93073.80
2023-11-02T08:16:46.171Z,93072.40
2023-11-02T08:19:14.515Z,93062.20
2023-11-02T08:21:43.591Z,93066.80
2023-11-02T08:24:11.439Z,93057.60
2023-11-02T08:26:39.574Z,93056.00
2023-11-02T08:29:07.205Z,93061.40
2023-11-02T08:31:34.987Z,93055.80
2023-11-02T08:34:03.834Z,93053.40
2023-11-02T08:36:33.132Z,93050.60
2023-11-02T08:39:01.317Z,93049.60
2023-11-02T08:41:29.407Z,93044.40
2023-11-02T08:43:59.721Z,93041.20
2023-11-02T08:46:28.337Z,93039.40
2023-11-02T08:48:57.103Z,93039.60
2023-11-02T08:51:25.247Z,93039.80
2023-11-02T08:53:53.128Z,93046.40
2023-11-02T08:56:20.894Z,93052.20
2023-11-02T08:58:51.428Z,93049.20
2023-11-02T09:01:20.282Z,93047.00
2023-11-02T09:03:48.500Z,93043.40
2023-11-02T09:06:16.868Z,93041.60
2023-11-02T09:08:45.105Z,93039.40
2023-11-02T09:11:12.855Z,93034.80
2023-11-02T09:13:40.514Z,93039.00
2023-11-02T09:16:08.293Z,93030.00
2023-11-02T09:18:37.488Z,93039.00
2023-11-02T09:21:05.854Z,93025.00
2023-11-02T09:23:38.944Z,93014.00
2023-11-02T09:26:07.136Z,93016.80
2023-11-02T09:28:35.149Z,93022.80
2023-11-02T09:31:03.472Z,93026.00
2023-11-02T09:33:31.515Z,93014.20
2023-11-02T09:36:00.801Z,93007.40
2023-11-02T09:38:28.539Z,92999.20
2023-11-02T09:40:56.149Z,93011.00
2023-11-02T09:43:23.838Z,92998.40
2023-11-02T09:45:51.903Z,92996.00
2023-11-02T09:48:19.597Z,92994.20
2023-11-02T09:50:47.357Z,93006.20
2023-11-02T09:53:15.137Z,93000.00
2023-11-02T09:55:42.899Z,92993.80
2023-11-02T09:58:10.922Z,92992.40
2023-11-02T10:00:38.713Z,92984.00
2023-11-02T10:03:06.869Z,92983.60
2023-11-02T10:05:34.930Z,92989.20
2023-11-02T10:08:02.953Z,92975.00
2023-11-02T10:10:31.045Z,92970.20
2023-11-02T10:12:59.995Z,92972.00
2023-11-02T10:15:28.041Z,92968.80
2023-11-02T10:17:55.754Z,92967.80
2023-11-02T10:20:23.484Z,92959.00
2023-11-02T10:22:51.305Z,92958.60
2023-11-02T10:25:19.269Z,92960.20
2023-11-02T10:27:47.069Z,92957.20
2023-11-02T10:30:15.148Z,92955.00
2023-11-02T10:32:44.289Z,92936.00
2023-11-02T10:35:12.174Z,92921.60
2023-11-02T10:37:39.837Z,92910.60
2023-11-02T10:40:07.506Z,92912.20
2023-11-02T10:42:35.720Z,92906.00
2023-11-02T10:45:03.620Z,92900.20
2023-11-02T10:47:31.753Z,92896.80
2023-11-02T10:50:00.019Z,92882.80
2023-11-02T10:52:28.724Z,92880.00
2023-11-02T10:54:57.465Z,92868.60
2023-11-02T10:57:25.223Z,92871.20
2023-11-02T10:59:57.524Z,92877.00
2023-11-02T11:02:25.250Z,92869.20
2023-11-02T11:04:53.730Z,92868.00
2023-11-02T11:07:22.566Z,92870.20
2023-11-02T11:09:50.348Z,92865.00
2023-11-02T11:12:21.108Z,92871.40
2023-11-02T11:14:48.974Z,92875.80
2023-11-02T11:17:16.668Z,92867.00
2023-11-02T11:19:44.455Z,92869.80
2023-11-02T11:22:12.687Z,92865.80
2023-11-02T11:24:41.279Z,92864.00
2023-11-02T11:27:08.982Z,92862.80
2023-11-02T11:29:37.053Z,92854.20
2023-11-02T11:32:04.981Z,92855.80
2023-11-02T11:34:32.953Z,92847.20
2023-11-02T11:37:00.757Z,92841.20
2023-11-02T11:39:28.507Z,92834.20
2023-11-02T11:41:56.185Z,92830.60
2023-11-02T11:44:24.010Z,92830.20
2023-11-02T11:46:53.963Z,92829.20
2023-11-02T11:49:22.668Z,92831.20
2023-11-02T11:51:51.709Z,92834.00
2023-11-02T11:54:19.347Z,92830.80
2023-11-02T11:56:47.384Z,92828.20
2023-11-02T11:59:15.474Z,92824.60
2023-11-02T12:01:43.309Z,92825.00
2023-11-02T12:04:11.826Z,92820.40
2023-11-02T12:06:39.916Z,92812.60
2023-11-02T12:09:17.526Z,92802.00
2023-11-02T12:11:46.577Z,92797.40
2023-11-02T12:14:16.592Z,92799.80
2023-11-02T12:16:48.143Z,92781.60
2023-11-02T12:19:17.500Z,92773.80
2023-11-02T12:21:45.874Z,92761.20
2023-11-02T12:24:13.988Z,92764.80
2023-11-02T12:26:41.950Z,92754.00
2023-11-02T12:29:13.243Z,92742.20
2023-11-02T12:31:42.875Z,92730.80
2023-11-02T12:34:12.879Z,92734.20
2023-11-02T12:36:42.717Z,92729.40
2023-11-02T12:39:12.945Z,92725.80
2023-11-02T12:41:41.817Z,92721.00
2023-11-02T12:44:10.154Z,92715.00
2023-11-02T12:46:38.689Z,92707.80
2023-11-02T12:49:08.672Z,92702.80
2023-11-02T12:51:37.301Z,92699.40
2023-11-02T12:54:05.218Z,92685.20
2023-11-02T12:56:32.821Z,92685.60
2023-11-02T12:59:00.885Z,92685.00
2023-11-02T13:01:28.558Z,92681.40
2023-11-02T13:03:56.889Z,92674.20
2023-11-02T13:06:24.911Z,92667.60
2023-11-02T13:08:52.691Z,92674.80
2023-11-02T13:11:22.863Z,92673.00
2023-11-02T13:13:50.647Z,92677.80
2023-11-02T13:16:18.853Z,92680.20
2023-11-02T13:18:47.722Z,92674.80
2023-11-02T13:21:15.532Z,92683.80
2023-11-02T13:23:45.836Z,92681.60
2023-11-02T13:26:13.845Z,92674.60
2023-11-02T13:28:42.021Z,92685.40
2023-11-02T13:31:10.370Z,92680.80
2023-11-02T13:33:38.398Z,92682.20
2023-11-02T13:36:07.396Z,92683.60
2023-11-02T13:38:35.146Z,92675.40
2023-11-02T13:41:04.531Z,92662.80
2023-11-02T13:43:32.937Z,92664.00
2023-11-02T13:46:00.751Z,92653.40
2023-11-02T13:48:28.701Z,92654.40
2023-11-02T13:50:56.551Z,92658.00
2023-11-02T13:53:24.456Z,92662.80
2023-11-02T13:55:52.231Z,92659.00
2023-11-02T13:58:19.926Z,92655.60
2023-11-02T14:00:49.047Z,92665.40
2023-11-02T14:03:17.062Z,92651.20
2023-11-02T14:05:45.266Z,92654.20
2023-11-02T14:08:13.909Z,92660.80
2023-11-02T14:10:41.463Z,92653.00
2023-11-02T14:13:10.223Z,92655.00
2023-11-02T14:15:38.049Z,92647.00
2023-11-02T14:18:06.581Z,92659.20
2023-11-02T14:20:34.909Z,92646.20
2023-11-02T14:23:02.581Z,92639.20
2023-11-02T14:25:31.252Z,92626.20
2023-11-02T14:27:59.816Z,92629.00
2023-11-02T14:30:27.541Z,92621.60
2023-11-02T14:32:56.437Z,92623.00
2023-11-02T14:35:24.168Z,92610.40
2023-11-02T14:37:52.029Z,92608.00
2023-11-02T14:40:19.896Z,92613.00
2023-11-02T14:42:47.684Z,92617.80
2023-11-02T14:45:15.711Z,92622.80
2023-11-02T14:47:44.209Z,92606.40
2023-11-02T14:50:12.044Z,92603.80
2023-11-02T14:52:40.941Z,92586.80
2023-11-02T14:55:08.759Z,92579.20
2023-11-02T14:57:36.432Z,92580.80
2023-11-02T15:00:06.269Z,92589.80
2023-11-02T15:02:34.833Z,92581.20
2023-11-02T15:05:03.307Z,92583.00
2023-11-02T15:07:31.205Z,92584.20
2023-11-02T15:09:59.935Z,92577.20
2023-11-02T15:12:27.977Z,92572.40
2023-11-02T15:14:55.770Z,92569.60
2023-11-02T15:17:23.853Z,92565.80
2023-11-02T15:19:51.958Z,92568.60
2023-11-02T15:22:19.920Z,92563.80
2023-11-02T15:24:47.542Z,92553.40
2023-11-02T15:27:19.045Z,92550.40
2023-11-02T15:29:47.031Z,92543.00
2023-11-02T15:32:14.679Z,92534.40
2023-11-02T15:34:42.811Z,92540.00
2023-11-02T15:37:10.631Z,92536.40
2023-11-02T15:39:38.443Z,92534.20
2023-11-02T15:42:06.190Z,92535.20
2023-11-02T15:44:33.821Z,92534.80
2023-11-02T15:47:01.897Z,92533.60
2023-11-02T15:49:33.610Z,92538.20
2023-11-02T15:52:02.000Z,92536.00
2023-11-02T15:54:29.748Z,92543.20
2023-11-02T15:56:59.186Z,92529.60
2023-11-02T15:59:27.127Z,92536.00
2023-11-02T16:02:04.243Z,92538.60
2023-11-02T16:04:39.308Z,92535.60
2023-11-02T16:07:07.399Z,92540.40
2023-11-02T16:09:35.290Z,92547.20
2023-11-02T16:12:09.757Z,92555.80
2023-11-02T16:14:37.858Z,92560.80
2023-11-02T16:17:05.589Z,92563.20
2023-11-02T16:19:35.228Z,92557.60
2023-11-02T16:22:03.080Z,92550.60
2023-11-02T16:24:30.834Z,92547.20
2023-11-02T16:26:58.642Z,92535.00
2023-11-02T16:29:26.428Z,92525.60
2023-11-02T16:31:57.430Z,92523.60
2023-11-02T16:34:35.690Z,92522.60
2023-11-02T16:37:09.809Z,92520.60
2023-11-02T16:39:37.633Z,92535.20
2023-11-02T16:42:05.521Z,92548.20
2023-11-02T16:44:33.293Z,92554.20
2023-11-02T16:47:01.079Z,92557.40
2023-11-02T16:49:29.071Z,92529.80
2023-11-02T16:51:57.373Z,92543.80
2023-11-02T16:54:25.868Z,92540.00
2023-11-02T16:56:53.684Z,92533.00
2023-11-02T16:59:21.996Z,92527.40
2023-11-02T17:01:49.820Z,92519.40
2023-11-02T17:04:17.543Z,92520.40
2023-11-02T17:06:45.349Z,92530.00
2023-11-02T17:09:13.031Z,92540.20
2023-11-02T17:11:41.310Z,92537.60
2023-11-02T17:14:20.382Z,92535.60
2023-11-02T17:16:48.084Z,92531.00
2023-11-02T17:19:15.721Z,92530.40
2023-11-02T17:21:46.733Z,92525.60
2023-11-02T17:24:14.869Z,92525.20
2023-11-02T17:26:42.651Z,92518.80
2023-11-02T17:29:10.341Z,92500.20
2023-11-02T17:31:38.101Z,92494.00
2023-11-02T17:34:06.281Z,92503.60
2023-11-02T17:36:34.177Z,92494.20
2023-11-02T17:39:01.930Z,92479.20
2023-11-02T17:41:35.535Z,92477.80
2023-11-02T17:44:03.393Z,92483.80
2023-11-02T17:46:31.250Z,92482.40
2023-11-02T17:49:02.101Z,92486.60
2023-11-02T17:51:30.175Z,92478.40
2023-11-02T17:53:57.889Z,92486.00
2023-11-02T17:56:25.949Z,92491.60
2023-11-02T17:58:53.726Z,92475.20
2023-11-02T18:01:22.076Z,92483.80
2023-11-02T18:03:49.865Z,92470.20
2023-11-02T18:06:17.990Z,92465.40
2023-11-02T18:08:45.709Z,92464.60
2023-11-02T18:11:13.569Z,92466.40
2023-11-02T18:13:41.785Z,92465.20
2023-11-02T18:16:11.674Z,92471.80
2023-11-02T18:18:39.508Z,92461.80
2023-11-02T18:21:07.702Z,92459.40
2023-11-02T18:23:35.399Z,92455.40
2023-11-02T18:26:04.301Z,92453.60
2023-11-02T18:28:36.904Z,92449.60
2023-11-02T18:31:04.787Z,92442.40
2023-11-02T18:33:32.945Z,92442.00
2023-11-02T18:36:10.015Z,92438.80
2023-11-02T18:38:39.503Z,92428.20
2023-11-02T18:41:07.723Z,92428.00
2023-11-02T18:43:35.477Z,92435.00
2023-11-02T18:46:04.215Z,92430.40
2023-11-02T18:48:33.993Z,92424.20
2023-11-02T18:51:01.762Z,92427.80
2023-11-02T18:53:29.705Z,92434.20
2023-11-02T18:55:57.490Z,92425.60
2023-11-02T18:58:25.238Z,92426.20
2023-11-02T19:00:54.146Z,92413.60
2023-11-02T19:03:21.836Z,92399.00
2023-11-02T19:05:49.638Z,92402.80
2023-11-02T19:08:19.371Z,92401.80
2023-11-02T19:10:47.080Z,92404.40
2023-11-02T19:13:15.745Z,92413.40
2023-11-02T19:15:45.831Z,92402.20
2023-11-02T19:18:13.727Z,92392.00
2023-11-02T19:20:41.365Z,92386.20
2023-11-02T19:23:09.265Z,92394.00
2023-11-02T19:25:45.277Z,92405.60
2023-11-02T19:28:12.965Z,92408.40
2023-11-02T19:30:41.111Z,92405.60
2023-11-02T19:33:08.910Z,92408.80
2023-11-02T19:35:36.805Z,92418.80
2023-11-02T19:38:04.752Z,92416.40
2023-11-02T19:40:32.682Z,92413.60
2023-11-02T19:43:00.466Z,92420.00
2023-11-02T19:45:28.312Z,92407.00
2023-11-02T19:47:56.178Z,92411.00
2023-11-02T19:50:23.972Z,92406.40
2023-11-02T19:52:51.797Z,92411.40
2023-11-02T19:55:19.538Z,92388.20
2023-11-02T19:57:50.269Z,92396.20
2023-11-02T20:00:18.252Z,92376.40
2023-11-02T20:02:45.931Z,92393.40
2023-11-02T20:05:14.280Z,92393.20
2023-11-02T20:07:42.730Z,92381.80
2023-11-02T20:10:11.358Z,92394.60
2023-11-02T20:12:39.967Z,92381.00
2023-11-02T20:15:08.196Z,92368.80
2023-11-02T20:17:36.020Z,92370.00
2023-11-02T20:20:05.367Z,92372.00
2023-11-02T20:22:33.068Z,92371.40
2023-11-02T20:25:00.800Z,92360.80
2023-11-02T20:27:28.573Z,92364.00
2023-11-02T20:29:56.320Z,92368.60
2023-11-02T20:32:24.008Z,92364.60
2023-11-02T20:34:52.024Z,92343.80
2023-11-02T20:37:20.482Z,92336.60
2023-11-02T20:39:48.291Z,92335.20
2023-11-02T20:42:16.041Z,92332.40
2023-11-02T20:44:43.696Z,92330.40
2023-11-02T20:47:11.530Z,92348.20
2023-11-02T20:49:39.377Z,92359.60
2023-11-02T20:52:07.052Z,92351.00
2023-11-02T20:54:34.878Z,92354.20
2023-11-02T20:57:02.613Z,92343.60
2023-11-02T20:59:30.979Z,92354.00
2023-11-02T21:02:00.566Z,92350.60
2023-11-02T21:04:28.704Z,92339.60
2023-11-02T21:07:00.355Z,92334.40
2023-11-02T21:09:29.061Z,92346.00
2023-11-02T21:11:56.813Z,92340.20
2023-11-02T21:14:25.162Z,92334.80
2023-11-02T21:16:52.813Z,92335.40
2023-11-02T21:19:21.709Z,92330.80
2023-11-02T21:21:51.272Z,92293.80
2023-11-02T21:24:19.112Z,92309.40
2023-11-02T21:26:47.068Z,92318.80
2023-11-02T21:29:14.773Z,92337.00
2023-11-02T21:31:42.765Z,92327.00
2023-11-02T21:34:10.553Z,92316.20
2023-11-02T21:36:39.878Z,92314.40
2023-11-02T21:39:07.567Z,92313.40
2023-11-02T21:41:35.465Z,92314.00
2023-11-02T21:44:03.594Z,92322.40
2023-11-02T21:46:31.978Z,92292.60
2023-11-02T21:48:59.962Z,92287.80
2023-11-02T21:51:28.077Z,92303.20
2023-11-02T21:53:56.586Z,92303.40
2023-11-02T21:56:25.500Z,92306.20
2023-11-02T21:58:54.893Z,92306.80
2023-11-02T22:01:22.795Z,92304.20
2023-11-02T22:03:51.833Z,92291.60
2023-11-02T22:06:19.841Z,92302.00
2023-11-02T22:08:47.469Z,92299.20
2023-11-02T22:11:15.223Z,92300.00
2023-11-02T22:13:43.017Z,92294.20
2023-11-02T22:16:10.705Z,92297.20
2023-11-02T22:18:38.465Z,92281.40
2023-11-02T22:21:06.203Z,92288.00
2023-11-02T22:23:33.991Z,92274.80
2023-11-02T22:26:01.687Z,92266.00
2023-11-02T22:28:29.416Z,92268.20
2023-11-02T22:30:57.151Z,92270.00
2023-11-02T22:33:25.111Z,92275.60
2023-11-02T22:35:52.984Z,92271.00
2023-11-02T22:38:20.834Z,92273.40
2023-11-02T22:40:48.555Z,92260.40
2023-11-02T22:43:16.484Z,92251.20
2023-11-02T22:45:44.261Z,92269.40
2023-11-02T22:48:12.163Z,92256.20
2023-11-02T22:50:39.935Z,92242.00
2023-11-02T22:53:10.901Z,92238.00
2023-11-02T22:55:38.669Z,92227.00
2023-11-02T22:58:07.179Z,92225.20
2023-11-02T23:00:35.293Z,92224.20
2023-11-02T23:03:03.270Z,92222.00
2023-11-02T23:05:31.166Z,92221.80
2023-11-02T23:07:59.184Z,92224.40
2023-11-02T23:10:28.417Z,92243.00
2023-11-02T23:12:56.275Z,92222.40
2023-11-02T23:15:25.144Z,92227.40
2023-11-02T23:17:53.822Z,92224.60
2023-11-02T23:20:21.962Z,92218.80
2023-11-02T23:22:50.452Z,92203.80
2023-11-02T23:25:18.207Z,92189.80
2023-11-02T23:27:46.906Z,92203.40
2023-11-02T23:30:14.595Z,92209.80
2023-11-02T23:32:43.487Z,92211.20
2023-11-02T23:35:11.668Z,92209.00
2023-11-02T23:37:40.945Z,92195.00
2023-11-02T23:40:09.847Z,92201.80
2023-11-02T23:42:37.529Z,92203.80
2023-11-02T23:45:05.711Z,92201.00
2023-11-02T23:47:33.552Z,92196.00
2023-11-02T23:50:01.190Z,92185.20
2023-11-02T23:52:28.993Z,92196.60
2023-11-02T23:54:57.607Z,92181.60
2023-11-02T23:57:25.393Z,92180.40
2023-11-02T23:59:53.040Z,92171.80
